createdAt,value
2019-02-06T00:01:02.615Z,148529.59
2019-02-06T00:03:33.393Z,148539.69
2019-02-06T00:06:04.255Z,148529.59
2019-02-06T00:08:34.722Z,148527.09
2019-02-06T00:11:06.223Z,148537.19
2019-02-06T00:13:36.974Z,148524.55
2019-02-06T00:16:08.021Z,148519.50
2019-02-06T00:18:38.498Z,148515.72
2019-02-06T00:21:09.021Z,148514.44
2019-02-06T00:23:39.570Z,148504.34
2019-02-06T00:26:10.283Z,148514.44
2019-02-06T00:28:41.261Z,148505.56
2019-02-06T00:31:11.752Z,148504.34
2019-02-06T00:33:42.526Z,148491.69
2019-02-06T00:36:12.968Z,148494.19
2019-02-06T00:38:43.469Z,148479.05
2019-02-06T00:41:13.973Z,148484.09
2019-02-06T00:43:44.452Z,148474.00
2019-02-06T00:46:15.016Z,148475.27
2019-02-06T00:48:45.543Z,148476.50
2019-02-06T00:51:16.024Z,148471.44
2019-02-06T00:53:46.855Z,148477.77
2019-02-06T00:56:17.337Z,148476.50
2019-02-06T00:58:47.842Z,148475.27
2019-02-06T01:01:19.979Z,148463.91
2019-02-06T01:03:50.616Z,148458.80
2019-02-06T01:06:21.148Z,148458.80
2019-02-06T01:08:51.739Z,148451.25
2019-02-06T01:11:22.614Z,148451.25
2019-02-06T01:13:53.112Z,148442.38
2019-02-06T01:16:23.900Z,148443.66
2019-02-06T01:18:54.693Z,148436.06
2019-02-06T01:21:25.653Z,148432.28
2019-02-06T01:23:56.284Z,148429.78
2019-02-06T01:26:26.977Z,148434.83
2019-02-06T01:28:57.445Z,148425.95
2019-02-06T01:31:30.011Z,148433.56
2019-02-06T01:34:00.471Z,148441.16
2019-02-06T01:36:30.943Z,148438.61
2019-02-06T01:39:01.471Z,148437.33
2019-02-06T01:41:31.910Z,148427.23
2019-02-06T01:44:02.765Z,148438.61
2019-02-06T01:46:33.716Z,148425.95
2019-02-06T01:49:04.844Z,148423.47
2019-02-06T01:51:35.315Z,148415.86
2019-02-06T01:54:05.955Z,148417.14
2019-02-06T01:56:36.424Z,148408.27
2019-02-06T01:59:07.180Z,148417.14
2019-02-06T02:01:38.008Z,148405.77
2019-02-06T02:04:08.742Z,148399.44
2019-02-06T02:06:39.265Z,148396.89
2019-02-06T02:09:19.805Z,148388.08
2019-02-06T02:11:50.468Z,148393.13
2019-02-06T02:14:20.912Z,148380.48
2019-02-06T02:16:51.389Z,148381.75
2019-02-06T02:19:23.974Z,148369.11
2019-02-06T02:21:54.674Z,148381.75
2019-02-06T02:24:25.472Z,148365.34
2019-02-06T02:26:55.911Z,148357.75
2019-02-06T02:29:26.674Z,148380.48
2019-02-06T02:31:57.349Z,148381.75
2019-02-06T02:34:28.065Z,148357.75
2019-02-06T02:36:58.520Z,148357.75
2019-02-06T02:39:29.103Z,148345.09
2019-02-06T02:42:00.177Z,148353.97
2019-02-06T02:44:30.804Z,148352.69
2019-02-06T02:47:01.297Z,148343.88
2019-02-06T02:49:32.014Z,148347.66
2019-02-06T02:52:02.561Z,148347.66
2019-02-06T02:54:33.346Z,148361.52
2019-02-06T02:57:04.059Z,148364.06
2019-02-06T02:59:34.496Z,148372.87
2019-02-06T03:02:23.880Z,148383.03
2019-02-06T03:05:01.694Z,148388.08
2019-02-06T03:07:32.198Z,148375.44
2019-02-06T03:10:02.577Z,148385.53
2019-02-06T03:12:33.031Z,148383.03
2019-02-06T03:15:03.616Z,148386.80
2019-02-06T03:17:34.089Z,148398.17
2019-02-06T03:20:06.164Z,148376.70
2019-02-06T03:22:36.675Z,148381.75
2019-02-06T03:25:08.501Z,148385.53
2019-02-06T03:27:39.072Z,148383.03
2019-02-06T03:30:13.221Z,148385.53
2019-02-06T03:32:44.091Z,148381.75
2019-02-06T03:35:14.879Z,148393.13
2019-02-06T03:37:45.377Z,148385.53
2019-02-06T03:40:16.519Z,148389.34
2019-02-06T03:42:47.510Z,148388.08
2019-02-06T03:45:18.354Z,148386.80
2019-02-06T03:47:48.852Z,148390.58
2019-02-06T03:50:19.721Z,148386.80
2019-02-06T03:52:50.396Z,148370.37
2019-02-06T03:55:20.955Z,148362.78
2019-02-06T03:57:51.464Z,148360.28
2019-02-06T04:00:22.235Z,148379.20
2019-02-06T04:02:52.968Z,148366.61
2019-02-06T04:05:23.466Z,148366.61
2019-02-06T04:07:54.241Z,148362.78
2019-02-06T04:10:24.991Z,148352.69
2019-02-06T04:12:56.193Z,148359.02
2019-02-06T04:15:26.956Z,148357.75
2019-02-06T04:17:57.689Z,148362.78
2019-02-06T04:20:28.158Z,148372.87
2019-02-06T04:22:58.667Z,148370.37
2019-02-06T04:25:29.135Z,148371.66
2019-02-06T04:27:59.603Z,148379.20
2019-02-06T04:30:30.212Z,148372.87
2019-02-06T04:33:00.943Z,148372.87
2019-02-06T04:35:31.425Z,148362.78
2019-02-06T04:38:02.469Z,148381.75
2019-02-06T04:40:33.285Z,148365.34
2019-02-06T04:43:04.384Z,148362.78
2019-02-06T04:45:35.209Z,148357.75
2019-02-06T04:48:05.793Z,148359.02
2019-02-06T04:50:36.548Z,148355.25
2019-02-06T04:53:07.136Z,148351.42
2019-02-06T04:55:37.589Z,148347.66
2019-02-06T04:58:08.318Z,148365.34
2019-02-06T05:00:38.986Z,148370.37
2019-02-06T05:03:09.720Z,148367.83
2019-02-06T05:05:40.183Z,148374.16
2019-02-06T05:08:11.326Z,148380.48
2019-02-06T05:10:41.859Z,148374.16
2019-02-06T05:13:12.884Z,148370.37
2019-02-06T05:15:43.393Z,148380.48
2019-02-06T05:18:14.137Z,148391.84
2019-02-06T05:20:44.617Z,148395.67
2019-02-06T05:23:15.142Z,148393.13
2019-02-06T05:25:45.659Z,148398.17
2019-02-06T05:28:18.208Z,148393.13
2019-02-06T05:30:48.480Z,148396.89
2019-02-06T05:33:19.396Z,148394.39
2019-02-06T05:35:50.286Z,148400.72
2019-02-06T05:38:20.814Z,148394.39
2019-02-06T05:40:51.640Z,148395.67
2019-02-06T05:43:22.139Z,148400.72
2019-02-06T05:45:52.812Z,148398.17
2019-02-06T05:48:23.290Z,148403.22
2019-02-06T05:50:54.043Z,148388.08
2019-02-06T05:53:24.556Z,148381.75
2019-02-06T05:55:55.314Z,148377.97
2019-02-06T05:58:25.817Z,148371.66
2019-02-06T06:00:56.352Z,148372.87
2019-02-06T06:03:27.094Z,148369.11
2019-02-06T06:05:57.563Z,148370.37
2019-02-06T06:08:28.141Z,148353.97
2019-02-06T06:10:58.741Z,148357.75
2019-02-06T06:13:29.598Z,148367.83
2019-02-06T06:16:00.094Z,148369.11
2019-02-06T06:18:30.871Z,148355.25
2019-02-06T06:21:01.525Z,148364.06
2019-02-06T06:23:32.063Z,148362.78
2019-02-06T06:26:02.582Z,148359.02
2019-02-06T06:28:33.049Z,148352.69
2019-02-06T06:31:03.699Z,148362.78
2019-02-06T06:33:34.560Z,148362.78
2019-02-06T06:36:05.017Z,148366.61
2019-02-06T06:38:35.577Z,148369.11
2019-02-06T06:41:06.062Z,148372.87
2019-02-06T06:43:36.572Z,148381.75
2019-02-06T06:46:07.146Z,148377.97
2019-02-06T06:48:37.629Z,148388.08
2019-02-06T06:51:08.331Z,148386.80
2019-02-06T06:53:39.109Z,148388.08
2019-02-06T06:56:09.594Z,148390.58
2019-02-06T06:58:40.076Z,148393.13
2019-02-06T07:01:11.191Z,148391.84
2019-02-06T07:03:41.991Z,148390.58
2019-02-06T07:06:12.486Z,148396.89
2019-02-06T07:08:43.058Z,148404.50
2019-02-06T07:11:13.665Z,148409.53
2019-02-06T07:13:44.260Z,148424.69
2019-02-06T07:16:14.942Z,148420.91
2019-02-06T07:18:45.980Z,148429.78
2019-02-06T07:21:16.813Z,148434.83
2019-02-06T07:23:47.541Z,148429.78
2019-02-06T07:26:18.899Z,148424.69
2019-02-06T07:28:49.717Z,148437.33
2019-02-06T07:31:20.365Z,148461.34
2019-02-06T07:33:51.621Z,148461.34
2019-02-06T07:36:22.682Z,148468.94
2019-02-06T07:38:53.794Z,148492.97
2019-02-06T07:41:24.632Z,148496.75
2019-02-06T07:43:55.400Z,148530.86
2019-02-06T07:46:26.073Z,148529.59
2019-02-06T07:48:56.743Z,148540.97
2019-02-06T07:51:27.326Z,148552.34
2019-02-06T07:53:58.482Z,148585.20
2019-02-06T07:56:33.583Z,148587.75
2019-02-06T07:59:04.226Z,148575.09
2019-02-06T08:01:34.686Z,148582.70
2019-02-06T08:04:05.741Z,148590.30
2019-02-06T08:06:36.589Z,148578.92
2019-02-06T08:09:10.509Z,148601.67
2019-02-06T08:11:41.259Z,148591.53
2019-02-06T08:14:11.815Z,148602.91
2019-02-06T08:16:42.304Z,148613.06
2019-02-06T08:19:13.128Z,148609.23
2019-02-06T08:21:43.887Z,148620.61
2019-02-06T08:24:14.371Z,148619.33
2019-02-06T08:26:45.115Z,148634.53
2019-02-06T08:29:15.595Z,148621.88
2019-02-06T08:31:46.333Z,148628.22
2019-02-06T08:34:17.186Z,148650.97
2019-02-06T08:36:47.656Z,148658.58
2019-02-06T08:39:18.320Z,148663.62
2019-02-06T08:41:49.103Z,148656.02
2019-02-06T08:44:19.579Z,148683.84
2019-02-06T08:46:50.367Z,148675.00
2019-02-06T08:49:21.441Z,148664.84
2019-02-06T08:51:52.429Z,148687.66
2019-02-06T08:54:22.913Z,148682.56
2019-02-06T08:56:55.339Z,148704.09
2019-02-06T08:59:26.072Z,148693.94
2019-02-06T09:01:56.543Z,148687.66
2019-02-06T09:04:27.345Z,148688.89
2019-02-06T09:06:57.829Z,148729.37
2019-02-06T09:09:28.519Z,148753.41
2019-02-06T09:11:59.013Z,148755.97
2019-02-06T09:14:29.499Z,148766.06
2019-02-06T09:17:00.442Z,148795.17
2019-02-06T09:19:31.182Z,148779.95
2019-02-06T09:22:01.645Z,148844.50
2019-02-06T09:24:32.145Z,148874.87
2019-02-06T09:27:02.606Z,148871.11
2019-02-06T09:29:33.279Z,148874.87
2019-02-06T09:32:03.823Z,148912.84
2019-02-06T09:34:34.283Z,148957.22
2019-02-06T09:37:05.361Z,148958.45
2019-02-06T09:39:36.174Z,148967.34
2019-02-06T09:42:06.873Z,148977.45
2019-02-06T09:44:37.850Z,149034.44
2019-02-06T09:47:08.399Z,148983.80
2019-02-06T09:49:41.557Z,149025.59
2019-02-06T09:52:11.309Z,149038.20
2019-02-06T09:54:42.088Z,149028.09
2019-02-06T09:57:14.073Z,149091.41
2019-02-06T09:59:44.567Z,149096.47
2019-02-06T10:02:15.042Z,149135.72
2019-02-06T10:04:45.610Z,149093.97
2019-02-06T10:07:18.962Z,149156.03
2019-02-06T10:09:49.671Z,149124.33
2019-02-06T10:12:20.618Z,149169.94
2019-02-06T10:14:51.165Z,149156.03
2019-02-06T10:17:21.623Z,149175.03
2019-02-06T10:19:52.160Z,149124.33
2019-02-06T10:22:22.643Z,149121.83
2019-02-06T10:24:53.421Z,149078.73
2019-02-06T10:27:24.234Z,149101.53
2019-02-06T10:29:54.685Z,149135.72
2019-02-06T10:32:25.415Z,149167.42
2019-02-06T10:34:55.963Z,149159.81
2019-02-06T10:37:29.150Z,149124.33
2019-02-06T10:39:59.118Z,149169.94
2019-02-06T10:42:29.707Z,149204.13
2019-02-06T10:45:00.473Z,149215.53
2019-02-06T10:47:31.263Z,149221.88
2019-02-06T10:50:02.100Z,149206.69
2019-02-06T10:52:33.066Z,149187.67
2019-02-06T10:55:03.962Z,149195.28
2019-02-06T10:57:34.558Z,149228.22
2019-02-06T11:00:11.631Z,149211.75
2019-02-06T11:02:42.266Z,149248.52
2019-02-06T11:05:13.879Z,149259.92
2019-02-06T11:07:46.281Z,149285.23
2019-02-06T11:10:17.566Z,149314.39
2019-02-06T11:12:48.424Z,149360.02
2019-02-06T11:15:19.043Z,149432.31
2019-02-06T11:17:49.998Z,149462.72
2019-02-06T11:20:21.897Z,149419.63
2019-02-06T11:22:52.463Z,149458.94
2019-02-06T11:25:23.399Z,149472.91
2019-02-06T11:27:54.333Z,149389.19
2019-02-06T11:30:27.902Z,149422.19
2019-02-06T11:32:59.045Z,149338.48
2019-02-06T11:35:30.889Z,149368.92
2019-02-06T11:38:01.543Z,149404.44
2019-02-06T11:40:32.326Z,149380.33
2019-02-06T11:43:03.561Z,149375.27
2019-02-06T11:45:34.778Z,149387.91
2019-02-06T11:48:06.316Z,149420.91
2019-02-06T11:50:42.367Z,149401.88
2019-02-06T11:53:17.715Z,149404.44
2019-02-06T11:55:48.851Z,149422.19
2019-02-06T11:58:19.725Z,149422.19
2019-02-06T12:01:07.623Z,149471.63
2019-02-06T12:03:38.283Z,149505.86
2019-02-06T12:06:09.100Z,149466.56
2019-02-06T12:08:39.730Z,149471.63
2019-02-06T12:11:10.311Z,149486.81
2019-02-06T12:13:41.033Z,149510.94
2019-02-06T12:16:11.736Z,149528.69
2019-02-06T12:18:42.403Z,149550.28
2019-02-06T12:21:13.415Z,149533.75
2019-02-06T12:23:44.276Z,149536.31
2019-02-06T12:26:14.759Z,149540.11
2019-02-06T12:28:45.268Z,149559.19
2019-02-06T12:31:15.819Z,149585.81
2019-02-06T12:33:46.265Z,149603.59
2019-02-06T12:36:16.861Z,149603.59
2019-02-06T12:38:53.679Z,149646.70
2019-02-06T12:41:19.835Z,149663.23
2019-02-06T12:43:50.314Z,149680.97
2019-02-06T12:46:21.173Z,149714.00
2019-02-06T12:48:51.665Z,149725.42
2019-02-06T12:51:22.532Z,149777.47
2019-02-06T12:53:53.275Z,149752.06
2019-02-06T12:56:24.025Z,149835.88
2019-02-06T12:58:54.897Z,149799.03
2019-02-06T13:01:25.420Z,149769.83
2019-02-06T13:03:55.915Z,149814.25
2019-02-06T13:06:26.386Z,149826.97
2019-02-06T13:08:56.955Z,149779.97
2019-02-06T13:11:27.756Z,149810.45
2019-02-06T13:13:58.287Z,149815.53
2019-02-06T13:16:29.079Z,149838.39
2019-02-06T13:18:59.544Z,149870.16
2019-02-06T13:21:30.310Z,149941.25
2019-02-06T13:24:01.053Z,149979.39
2019-02-06T13:26:31.533Z,150017.53
2019-02-06T13:29:02.318Z,150065.83
2019-02-06T13:31:32.858Z,150070.91
2019-02-06T13:34:03.570Z,150030.25
2019-02-06T13:36:34.046Z,150002.25
2019-02-06T13:39:07.693Z,150031.53
2019-02-06T13:41:38.221Z,150060.75
2019-02-06T13:44:08.974Z,150078.50
2019-02-06T13:46:39.901Z,150034.03
2019-02-06T13:49:10.392Z,150032.75
2019-02-06T13:51:41.200Z,150079.78
2019-02-06T13:54:11.721Z,150025.17
2019-02-06T13:56:42.210Z,150032.75
2019-02-06T13:59:12.931Z,150063.27
2019-02-06T14:01:43.433Z,150082.34
2019-02-06T14:04:14.029Z,150051.84
2019-02-06T14:06:44.527Z,150063.27
2019-02-06T14:09:22.594Z,150101.37
2019-02-06T14:11:49.513Z,150087.42
2019-02-06T14:14:20.106Z,150110.30
2019-02-06T14:16:50.706Z,150136.97
2019-02-06T14:19:21.177Z,150116.66
2019-02-06T14:21:51.685Z,150158.61
2019-02-06T14:24:52.057Z,150162.41
2019-02-06T14:27:43.301Z,150134.45
2019-02-06T14:30:57.669Z,150149.69
2019-02-06T14:34:23.512Z,150125.53
2019-02-06T14:37:56.939Z,150100.14
2019-02-06T14:41:27.301Z,150096.30
2019-02-06T14:45:21.627Z,150073.42
2019-02-06T14:48:14.561Z,150077.27
2019-02-06T14:51:45.727Z,150093.78
2019-02-06T14:55:09.338Z,150111.58
2019-02-06T14:58:56.385Z,150135.69
2019-02-06T15:02:41.662Z,150110.30
2019-02-06T15:05:57.524Z,150109.02
2019-02-06T15:09:01.691Z,150098.86
2019-02-06T15:11:51.478Z,150102.66
2019-02-06T15:14:56.234Z,150096.30
2019-02-06T15:18:08.856Z,150121.73
2019-02-06T15:21:20.113Z,150107.73
2019-02-06T15:24:51.119Z,150096.30
2019-02-06T15:28:05.037Z,150101.37
2019-02-06T15:31:41.733Z,150093.78
2019-02-06T15:35:20.598Z,150129.38
2019-02-06T15:39:14.128Z,150107.73
2019-02-06T15:41:57.583Z,150128.09
2019-02-06T15:44:56.308Z,150092.50
2019-02-06T15:48:10.908Z,150088.70
2019-02-06T15:51:56.736Z,150087.42
2019-02-06T15:55:25.893Z,150101.37
2019-02-06T15:59:03.751Z,150087.42
2019-02-06T16:02:28.321Z,150098.86
2019-02-06T16:05:46.196Z,150081.06
2019-02-06T16:08:33.251Z,150096.30
2019-02-06T16:11:42.471Z,150100.14
2019-02-06T16:15:02.682Z,150088.70
2019-02-06T16:18:17.296Z,150079.78
2019-02-06T16:21:52.653Z,150082.34
2019-02-06T16:25:08.137Z,150068.34
2019-02-06T16:28:39.526Z,150060.75
2019-02-06T16:32:10.980Z,150060.75
2019-02-06T16:35:37.889Z,150045.47
2019-02-06T16:39:20.214Z,150037.84
2019-02-06T16:42:55.289Z,150042.97
2019-02-06T16:46:13.223Z,150051.84
2019-02-06T16:49:44.389Z,150055.62
2019-02-06T16:53:12.198Z,150032.75
2019-02-06T16:56:43.614Z,150040.41
2019-02-06T16:59:57.440Z,150026.41
2019-02-06T17:04:01.506Z,150025.17
2019-02-06T17:07:11.432Z,150012.45
2019-02-06T17:10:47.598Z,150012.45
2019-02-06T17:14:19.364Z,149998.41
2019-02-06T17:17:39.556Z,149964.11
2019-02-06T17:21:11.627Z,149955.23
2019-02-06T17:24:25.125Z,149956.52
2019-02-06T17:27:58.217Z,149915.88
2019-02-06T17:31:05.185Z,149914.59
2019-02-06T17:34:29.298Z,149887.94
2019-02-06T17:38:01.194Z,149887.94
2019-02-06T17:41:35.611Z,149875.23
2019-02-06T17:45:15.671Z,149880.31
2019-02-06T17:48:30.145Z,149868.88
2019-02-06T17:52:11.453Z,149848.53
2019-02-06T17:55:25.585Z,149843.47
2019-02-06T17:57:59.641Z,149834.59
2019-02-06T18:00:51.491Z,149821.89
2019-02-06T18:03:22.359Z,149791.41
2019-02-06T18:05:53.309Z,149790.17
2019-02-06T18:08:23.798Z,149785.05
2019-02-06T18:10:54.548Z,149760.97
2019-02-06T18:13:25.156Z,149741.91
2019-02-06T18:15:55.652Z,149725.42
2019-02-06T18:18:26.778Z,149730.50
2019-02-06T18:20:57.366Z,149730.50
2019-02-06T18:23:28.128Z,149708.92
2019-02-06T18:25:58.644Z,149687.31
2019-02-06T18:28:29.365Z,149683.52
2019-02-06T18:30:59.903Z,149672.09
2019-02-06T18:33:30.729Z,149661.97
2019-02-06T18:36:01.203Z,149647.98
2019-02-06T18:38:32.286Z,149646.70
2019-02-06T18:41:02.919Z,149646.70
2019-02-06T18:43:33.433Z,149623.86
2019-02-06T18:46:03.955Z,149621.36
2019-02-06T18:48:35.448Z,149604.86
2019-02-06T18:51:06.697Z,149599.80
2019-02-06T18:53:37.267Z,149602.31
2019-02-06T18:56:07.989Z,149575.69
2019-02-06T18:58:38.481Z,149566.78
2019-02-06T19:01:09.393Z,149590.89
2019-02-06T19:03:44.177Z,149551.56
2019-02-06T19:06:15.030Z,149536.31
2019-02-06T19:08:45.619Z,149531.25
2019-02-06T19:11:16.226Z,149527.41
2019-02-06T19:13:46.848Z,149514.72
2019-02-06T19:16:17.798Z,149480.47
2019-02-06T19:18:48.293Z,149469.06
2019-02-06T19:21:19.601Z,149469.06
2019-02-06T19:23:50.144Z,149441.17
2019-02-06T19:26:20.639Z,149442.45
2019-02-06T19:28:51.256Z,149451.31
2019-02-06T19:31:21.725Z,149419.63
2019-02-06T19:33:52.193Z,149405.66
2019-02-06T19:36:23.357Z,149434.83
2019-02-06T19:38:54.394Z,149413.28
2019-02-06T19:41:24.871Z,149418.34
2019-02-06T19:43:55.428Z,149413.28
2019-02-06T19:46:26.548Z,149413.28
2019-02-06T19:48:57.328Z,149398.09
2019-02-06T19:51:28.109Z,149386.67
2019-02-06T19:53:58.566Z,149365.09
2019-02-06T19:56:29.050Z,149370.20
2019-02-06T19:58:59.813Z,149362.58
2019-02-06T20:01:30.299Z,149366.36
2019-02-06T20:04:01.292Z,149360.02
2019-02-06T20:06:32.890Z,149335.97
2019-02-06T20:09:13.926Z,149344.83
2019-02-06T20:11:44.714Z,149297.92
2019-02-06T20:14:15.207Z,149299.20
2019-02-06T20:16:46.596Z,149297.92
2019-02-06T20:19:17.102Z,149296.64
2019-02-06T20:21:47.577Z,149286.52
2019-02-06T20:24:18.398Z,149301.70
2019-02-06T20:26:48.952Z,149299.20
2019-02-06T20:29:19.456Z,149294.13
2019-02-06T20:31:49.939Z,149291.58
2019-02-06T20:34:20.658Z,149311.87
2019-02-06T20:36:52.849Z,149304.27
2019-02-06T20:39:23.765Z,149299.20
2019-02-06T20:41:55.933Z,149306.81
2019-02-06T20:44:26.827Z,149294.13
2019-02-06T20:46:58.075Z,149297.92
2019-02-06T20:49:29.063Z,149276.39
2019-02-06T20:52:00.068Z,149286.52
2019-02-06T20:54:30.700Z,149268.77
2019-02-06T20:57:11.827Z,149264.98
2019-02-06T20:59:33.976Z,149238.39
2019-02-06T21:02:04.678Z,149233.28
2019-02-06T21:04:46.942Z,149233.28
2019-02-06T21:07:17.217Z,149238.39
2019-02-06T21:09:50.898Z,149228.22
2019-02-06T21:12:22.137Z,149235.83
2019-02-06T21:14:55.591Z,149237.11
2019-02-06T21:17:27.052Z,149228.22
2019-02-06T21:19:57.753Z,149232.05
2019-02-06T21:22:34.407Z,149226.98
2019-02-06T21:25:09.540Z,149232.05
2019-02-06T21:27:41.940Z,149230.77
2019-02-06T21:30:25.759Z,149218.09
2019-02-06T21:32:57.006Z,149223.16
2019-02-06T21:35:28.499Z,149210.47
2019-02-06T21:37:59.812Z,149185.16
2019-02-06T21:40:33.153Z,149194.00
2019-02-06T21:43:04.079Z,149181.33
2019-02-06T21:45:34.966Z,149175.03
2019-02-06T21:48:08.678Z,149191.50
2019-02-06T21:50:40.188Z,149194.00
2019-02-06T21:53:10.820Z,149185.16
2019-02-06T21:55:42.205Z,149180.09
2019-02-06T21:58:14.975Z,149169.94
2019-02-06T22:00:45.953Z,149187.67
2019-02-06T22:03:17.242Z,149175.03
2019-02-06T22:05:47.898Z,149177.55
2019-02-06T22:08:18.453Z,149182.61
2019-02-06T22:10:49.589Z,149177.55
2019-02-06T22:13:20.351Z,149175.03
2019-02-06T22:15:51.207Z,149196.56
2019-02-06T22:18:22.243Z,149195.28
2019-02-06T22:20:53.565Z,149195.28
2019-02-06T22:23:24.217Z,149197.84
2019-02-06T22:25:55.010Z,149200.34
2019-02-06T22:28:28.449Z,149200.34
2019-02-06T22:30:59.584Z,149183.89
2019-02-06T22:33:30.404Z,149188.94
2019-02-06T22:36:00.904Z,149161.08
2019-02-06T22:38:31.433Z,149176.27
2019-02-06T22:41:02.276Z,149169.94
2019-02-06T22:43:32.872Z,149190.22
2019-02-06T22:46:03.675Z,149180.09
2019-02-06T22:48:34.148Z,149180.09
2019-02-06T22:51:05.052Z,149180.09
2019-02-06T22:53:35.605Z,149164.88
2019-02-06T22:56:06.474Z,149168.70
2019-02-06T22:58:37.157Z,149156.03
2019-02-06T23:01:51.302Z,149164.88
2019-02-06T23:04:21.793Z,149157.30
2019-02-06T23:06:53.583Z,149166.14
2019-02-06T23:09:24.413Z,149159.81
2019-02-06T23:11:55.182Z,149162.36
2019-02-06T23:14:26.317Z,149182.61
2019-02-06T23:16:56.930Z,149186.44
2019-02-06T23:19:27.488Z,149173.77
2019-02-06T23:21:57.958Z,149161.08
2019-02-06T23:24:28.800Z,149139.56
2019-02-06T23:26:59.602Z,149139.56
2019-02-06T23:29:30.096Z,149121.83
2019-02-06T23:32:00.594Z,149111.70
2019-02-06T23:34:31.088Z,149112.94
2019-02-06T23:37:01.819Z,149105.36
2019-02-06T23:39:32.314Z,149112.94
2019-02-06T23:42:03.044Z,149112.94
2019-02-06T23:44:33.827Z,149106.59
2019-02-06T23:47:04.322Z,149112.94
2019-02-06T23:49:35.027Z,149092.69
2019-02-06T23:52:05.770Z,149093.97
2019-02-06T23:54:36.579Z,149101.53
2019-02-06T23:57:07.453Z,149083.80
2019-02-06T23:59:44.075Z,149093.97
